createdAt,value
2018-05-14T00:01:08.214Z,4.83
2018-05-14T00:03:35.830Z,4.83
2018-05-14T00:06:03.446Z,4.90
2018-05-14T00:08:31.061Z,5.70
2018-05-14T00:10:58.632Z,5.63
2018-05-14T00:13:26.206Z,4.67
2018-05-14T00:15:53.782Z,5.37
2018-05-14T00:18:21.398Z,4.77
2018-05-14T00:20:49.078Z,5.30
2018-05-14T00:23:16.697Z,6.20
2018-05-14T00:25:44.281Z,6.27
2018-05-14T00:28:11.901Z,5.20
2018-05-14T00:30:39.486Z,4.90
2018-05-14T00:33:07.158Z,5.40
2018-05-14T00:35:35.658Z,5.97
2018-05-14T00:38:03.272Z,5.97
2018-05-14T00:40:30.845Z,5.60
2018-05-14T00:42:58.465Z,5.47
2018-05-14T00:45:26.047Z,5.50
2018-05-14T00:47:53.627Z,5.57
2018-05-14T00:50:21.310Z,5.50
2018-05-14T00:52:49.005Z,6.60
2018-05-14T00:55:17.345Z,5.73
2018-05-14T00:57:44.922Z,5.70
2018-05-14T01:00:13.448Z,6.40
2018-05-14T01:02:41.035Z,5.00
2018-05-14T01:05:08.659Z,4.83
2018-05-14T01:07:36.246Z,6.93
2018-05-14T01:10:03.898Z,6.00
2018-05-14T01:12:31.475Z,6.23
2018-05-14T01:14:59.093Z,6.43
2018-05-14T01:17:26.671Z,6.00
2018-05-14T01:19:55.081Z,5.83
2018-05-14T01:22:22.652Z,5.90
2018-05-14T01:24:55.879Z,5.27
2018-05-14T01:27:23.458Z,6.13
2018-05-14T01:29:51.030Z,5.57
2018-05-14T01:32:18.601Z,6.10
2018-05-14T01:34:46.180Z,5.70
2018-05-14T01:37:13.761Z,7.13
2018-05-14T01:39:41.337Z,6.97
2018-05-14T01:42:08.917Z,6.70
2018-05-14T01:44:36.497Z,5.63
2018-05-14T01:47:04.165Z,6.03
2018-05-14T01:49:31.737Z,6.70
2018-05-14T01:51:59.371Z,6.83
2018-05-14T01:54:26.945Z,6.57
2018-05-14T01:56:54.518Z,6.40
2018-05-14T01:59:22.094Z,6.47
2018-05-14T02:01:49.680Z,7.00
2018-05-14T02:04:17.261Z,7.03
2018-05-14T02:06:44.840Z,6.90
2018-05-14T02:09:12.417Z,7.03
2018-05-14T02:11:39.994Z,6.27
2018-05-14T02:14:07.569Z,6.07
2018-05-14T02:16:35.148Z,6.97
2018-05-14T02:19:02.723Z,7.30
2018-05-14T02:21:30.369Z,7.03
2018-05-14T02:23:57.985Z,7.30
2018-05-14T02:26:25.590Z,7.33
2018-05-14T02:28:53.395Z,7.20
2018-05-14T02:31:21.731Z,7.30
2018-05-14T02:33:50.090Z,6.67
2018-05-14T02:36:17.702Z,6.90
2018-05-14T02:38:45.293Z,7.00
2018-05-14T02:41:12.876Z,7.07
2018-05-14T02:43:41.277Z,7.83
2018-05-14T02:46:08.855Z,7.83
2018-05-14T02:48:36.430Z,6.87
2018-05-14T02:51:04.064Z,6.50
2018-05-14T02:53:31.728Z,9.50
2018-05-14T02:55:59.347Z,7.27
2018-05-14T02:58:26.925Z,7.10
2018-05-14T03:00:54.511Z,7.00
2018-05-14T03:03:22.089Z,7.40
2018-05-14T03:05:49.664Z,6.90
2018-05-14T03:08:17.249Z,8.20
2018-05-14T03:10:44.830Z,7.70
2018-05-14T03:13:12.407Z,7.43
2018-05-14T03:15:40.084Z,7.20
2018-05-14T03:18:07.679Z,7.93
2018-05-14T03:20:35.263Z,7.47
2018-05-14T03:23:02.872Z,6.60
2018-05-14T03:25:30.464Z,7.77
2018-05-14T03:27:58.041Z,8.20
2018-05-14T03:30:25.618Z,7.40
2018-05-14T03:32:53.201Z,8.13
2018-05-14T03:35:20.777Z,7.93
2018-05-14T03:37:48.473Z,7.00
2018-05-14T03:40:16.051Z,8.40
2018-05-14T03:42:44.226Z,7.20
2018-05-14T03:45:11.800Z,8.40
2018-05-14T03:47:39.402Z,8.00
2018-05-14T03:50:06.977Z,6.23
2018-05-14T03:52:35.497Z,7.17
2018-05-14T03:55:03.068Z,7.77
2018-05-14T03:57:31.434Z,8.97
2018-05-14T04:00:10.829Z,7.43
2018-05-14T04:02:50.395Z,6.93
2018-05-14T04:05:17.977Z,7.23
2018-05-14T04:07:45.562Z,7.90
2018-05-14T04:10:13.130Z,7.10
2018-05-14T04:12:42.545Z,7.10
2018-05-14T04:15:10.130Z,7.27
2018-05-14T04:17:37.706Z,6.63
2018-05-14T04:20:05.284Z,8.10
2018-05-14T04:22:32.853Z,8.17
2018-05-14T04:25:00.432Z,8.00
2018-05-14T04:27:28.012Z,8.37
2018-05-14T04:29:55.859Z,7.70
2018-05-14T04:32:23.481Z,8.23
2018-05-14T04:34:51.113Z,8.37
2018-05-14T04:37:18.686Z,7.77
2018-05-14T04:39:47.249Z,7.80
2018-05-14T04:42:14.833Z,7.57
2018-05-14T04:44:42.410Z,8.07
2018-05-14T04:47:09.990Z,7.50
2018-05-14T04:49:37.567Z,8.50
2018-05-14T04:52:05.161Z,8.00
2018-05-14T04:54:32.797Z,8.60
2018-05-14T04:57:00.483Z,7.80
2018-05-14T04:59:28.070Z,8.10
2018-05-14T05:01:55.659Z,7.70
2018-05-14T05:04:23.271Z,7.67
2018-05-14T05:06:50.853Z,9.63
2018-05-14T05:09:18.429Z,9.13
2018-05-14T05:11:46.008Z,8.00
2018-05-14T05:14:13.614Z,8.43
2018-05-14T05:16:41.197Z,8.73
2018-05-14T05:19:08.805Z,7.63
2018-05-14T05:21:36.385Z,7.53
2018-05-14T05:24:04.769Z,9.40
2018-05-14T05:26:32.349Z,7.33
2018-05-14T05:28:59.932Z,8.33
2018-05-14T05:31:27.511Z,7.50
2018-05-14T05:33:55.085Z,8.00
2018-05-14T05:36:22.669Z,8.13
2018-05-14T05:38:50.245Z,7.60
2018-05-14T05:41:17.914Z,7.57
2018-05-14T05:43:45.496Z,8.23
2018-05-14T05:46:13.076Z,7.40
2018-05-14T05:48:40.725Z,7.70
2018-05-14T05:51:08.308Z,8.17
2018-05-14T05:53:35.882Z,7.67
2018-05-14T05:56:03.459Z,8.30
2018-05-14T05:58:31.038Z,7.20
2018-05-14T06:00:58.623Z,8.03
2018-05-14T06:03:26.209Z,6.40
2018-05-14T06:05:57.606Z,8.83
2018-05-14T06:08:25.179Z,7.50
2018-05-14T06:10:53.761Z,6.57
2018-05-14T06:13:21.341Z,8.10
2018-05-14T06:15:48.930Z,6.90
2018-05-14T06:18:16.502Z,6.83
2018-05-14T06:20:44.074Z,6.80
2018-05-14T06:23:11.657Z,7.23
2018-05-14T06:25:39.234Z,7.90
2018-05-14T06:28:06.816Z,7.87
2018-05-14T06:30:34.389Z,6.83
2018-05-14T06:33:01.977Z,6.67
2018-05-14T06:35:30.566Z,8.00
2018-05-14T06:37:58.988Z,6.50
2018-05-14T06:40:26.660Z,6.97
2018-05-14T06:42:54.173Z,5.90
2018-05-14T06:45:21.749Z,7.40
2018-05-14T06:47:49.325Z,6.50
2018-05-14T06:50:17.899Z,6.20
2018-05-14T06:52:46.239Z,6.40
2018-05-14T06:55:13.860Z,6.47
2018-05-14T06:57:41.423Z,7.00
2018-05-14T07:00:09.001Z,6.53
2018-05-14T07:02:36.580Z,6.43
2018-05-14T07:05:04.157Z,6.30
2018-05-14T07:07:31.733Z,6.23
2018-05-14T07:09:59.315Z,5.90
2018-05-14T07:12:26.883Z,5.70
2018-05-14T07:14:54.462Z,6.30
2018-05-14T07:17:22.045Z,6.50
2018-05-14T07:19:50.535Z,5.37
2018-05-14T07:22:18.106Z,6.13
2018-05-14T07:24:45.700Z,6.00
2018-05-14T07:27:13.289Z,6.20
2018-05-14T07:29:40.865Z,5.50
2018-05-14T07:32:08.499Z,5.90
2018-05-14T07:34:38.010Z,5.97
2018-05-14T07:37:05.589Z,6.20
2018-05-14T07:39:33.165Z,6.03
2018-05-14T07:42:00.761Z,6.10
2018-05-14T07:44:28.343Z,4.97
2018-05-14T07:46:55.918Z,5.57
2018-05-14T07:49:23.492Z,5.50
2018-05-14T07:51:51.074Z,5.80
2018-05-14T07:54:18.739Z,5.67
2018-05-14T07:56:46.261Z,6.60
2018-05-14T07:59:13.831Z,5.73
2018-05-14T08:01:41.398Z,5.13
2018-05-14T08:04:08.965Z,5.50
2018-05-14T08:06:36.536Z,6.00
2018-05-14T08:09:04.114Z,6.40
2018-05-14T08:11:31.681Z,6.60
2018-05-14T08:14:00.228Z,5.20
2018-05-14T08:16:27.770Z,4.90
2018-05-14T08:18:55.344Z,4.70
2018-05-14T08:21:22.917Z,5.10
2018-05-14T08:23:50.829Z,5.00
2018-05-14T08:26:18.409Z,5.23
2018-05-14T08:28:45.984Z,5.20
2018-05-14T08:31:13.569Z,5.83
2018-05-14T08:33:41.158Z,5.37
2018-05-14T08:36:08.823Z,4.90
2018-05-14T08:38:36.357Z,4.50
2018-05-14T08:41:03.929Z,5.00
2018-05-14T08:43:31.506Z,4.70
2018-05-14T08:45:59.092Z,4.30
2018-05-14T08:48:26.666Z,4.30
2018-05-14T08:50:54.436Z,5.03
2018-05-14T08:53:21.844Z,4.10
2018-05-14T08:55:49.409Z,3.43
2018-05-14T08:58:17.073Z,3.80
2018-05-14T09:00:44.611Z,4.47
2018-05-14T09:03:12.188Z,3.90
2018-05-14T09:05:39.765Z,4.43
2018-05-14T09:08:07.342Z,4.07
2018-05-14T09:10:34.917Z,4.03
2018-05-14T09:13:02.496Z,3.83
2018-05-14T09:15:30.066Z,3.93
2018-05-14T09:17:57.634Z,3.87
2018-05-14T09:20:25.205Z,4.57
2018-05-14T09:22:52.784Z,3.77
2018-05-14T09:25:20.365Z,3.63
2018-05-14T09:27:47.941Z,4.00
2018-05-14T09:30:15.511Z,3.83
2018-05-14T09:32:43.890Z,4.50
2018-05-14T09:35:12.181Z,3.43
2018-05-14T09:37:39.753Z,3.87
2018-05-14T09:40:07.694Z,3.70
2018-05-14T09:42:35.268Z,4.23
2018-05-14T09:45:03.548Z,3.47
2018-05-14T09:47:31.912Z,3.40
2018-05-14T09:50:00.262Z,3.53
2018-05-14T09:52:28.827Z,3.10
2018-05-14T09:54:56.413Z,3.90
2018-05-14T09:57:24.026Z,3.50
2018-05-14T09:59:52.301Z,3.63
2018-05-14T10:02:19.881Z,3.40
2018-05-14T10:04:47.454Z,3.70
2018-05-14T10:07:15.025Z,3.30
2018-05-14T10:09:42.602Z,3.80
2018-05-14T10:12:10.875Z,3.57
2018-05-14T10:14:38.454Z,2.80
2018-05-14T10:17:06.026Z,3.47
2018-05-14T10:19:34.506Z,3.63
2018-05-14T10:22:02.081Z,3.63
2018-05-14T10:24:29.652Z,3.63
2018-05-14T10:26:57.225Z,3.70
2018-05-14T10:29:24.799Z,3.40
2018-05-14T10:31:52.412Z,2.93
2018-05-14T10:34:19.981Z,3.23
2018-05-14T10:36:47.559Z,3.67
2018-05-14T10:39:15.133Z,3.97
2018-05-14T10:41:42.710Z,3.90
2018-05-14T10:44:10.285Z,4.30
2018-05-14T10:46:37.931Z,3.30
2018-05-14T10:49:06.152Z,3.80
2018-05-14T10:51:34.426Z,3.77
2018-05-14T10:54:02.772Z,3.43
2018-05-14T10:56:31.109Z,3.73
2018-05-14T10:58:59.389Z,3.60
2018-05-14T11:01:26.965Z,3.27
2018-05-14T11:03:54.612Z,3.90
2018-05-14T11:06:22.190Z,3.10
2018-05-14T11:08:49.770Z,4.07
2018-05-14T11:11:17.346Z,2.97
2018-05-14T11:13:44.921Z,3.27
2018-05-14T11:16:12.545Z,4.13
2018-05-14T11:18:40.177Z,3.47
2018-05-14T11:21:07.749Z,3.40
2018-05-14T11:23:35.324Z,3.30
2018-05-14T11:26:02.910Z,3.60
2018-05-14T11:28:30.522Z,3.40
2018-05-14T11:30:58.090Z,3.63
2018-05-14T11:33:25.660Z,3.80
2018-05-14T11:35:53.233Z,3.47
2018-05-14T11:38:20.807Z,3.57
2018-05-14T11:40:48.378Z,3.37
2018-05-14T11:43:15.969Z,3.43
2018-05-14T11:45:43.568Z,3.83
2018-05-14T11:48:11.186Z,4.00
2018-05-14T11:50:38.762Z,4.00
2018-05-14T11:53:06.349Z,3.90
2018-05-14T11:55:33.926Z,4.23
2018-05-14T11:58:01.501Z,4.10
2018-05-14T12:00:29.079Z,3.80
2018-05-14T12:02:56.703Z,4.30
2018-05-14T12:05:24.270Z,3.70
2018-05-14T12:07:51.906Z,3.70
2018-05-14T12:10:19.482Z,4.00
2018-05-14T12:12:47.065Z,5.10
2018-05-14T12:15:14.644Z,4.00
2018-05-14T12:17:42.258Z,3.87
2018-05-14T12:20:10.747Z,4.93
2018-05-14T12:22:38.366Z,4.70
2018-05-14T12:25:05.944Z,4.50
2018-05-14T12:27:33.516Z,4.13
2018-05-14T12:30:01.091Z,3.90
2018-05-14T12:32:28.675Z,3.73
2018-05-14T12:34:56.248Z,4.67
2018-05-14T12:37:23.848Z,3.80
2018-05-14T12:39:51.431Z,4.20
2018-05-14T12:42:19.925Z,4.53
2018-05-14T12:44:47.501Z,4.63
2018-05-14T12:47:15.072Z,3.87
2018-05-14T12:52:23.300Z,4.37
2018-05-14T12:54:50.878Z,4.20
2018-05-14T12:57:18.592Z,3.87
2018-05-14T12:59:47.007Z,4.73
2018-05-14T13:02:15.349Z,4.70
2018-05-14T13:04:42.924Z,4.73
2018-05-14T13:07:10.537Z,4.43
2018-05-14T13:09:38.921Z,4.37
2018-05-14T13:12:07.278Z,4.37
2018-05-14T13:14:35.641Z,4.37
2018-05-14T13:17:03.977Z,4.23
2018-05-14T13:19:31.552Z,4.70
2018-05-14T13:22:00.050Z,4.03
2018-05-14T13:24:27.621Z,4.00
2018-05-14T13:26:55.188Z,3.77
2018-05-14T13:29:23.593Z,3.80
2018-05-14T13:31:51.162Z,4.17
2018-05-14T13:34:19.677Z,4.23
2018-05-14T13:36:47.951Z,3.90
2018-05-14T13:39:16.345Z,4.00
2018-05-14T13:41:43.921Z,4.60
2018-05-14T13:44:11.619Z,4.20
2018-05-14T13:46:39.154Z,4.03
2018-05-14T13:49:06.725Z,4.70
2018-05-14T13:51:34.337Z,3.97
2018-05-14T13:54:01.913Z,4.07
2018-05-14T13:56:29.552Z,3.27
2018-05-14T13:58:57.138Z,4.03
2018-05-14T14:01:24.747Z,4.20
2018-05-14T14:03:53.213Z,3.63
2018-05-14T14:06:20.799Z,4.27
2018-05-14T14:08:48.378Z,4.43
2018-05-14T14:11:15.958Z,4.03
2018-05-14T14:13:44.477Z,4.13
2018-05-14T14:16:12.044Z,3.67
2018-05-14T14:18:39.662Z,4.37
2018-05-14T14:21:07.237Z,3.97
2018-05-14T14:23:34.958Z,3.97
2018-05-14T14:26:02.470Z,3.33
2018-05-14T14:28:30.059Z,3.70
2018-05-14T14:30:57.633Z,5.30
2018-05-14T14:33:25.213Z,4.10
2018-05-14T14:35:52.885Z,3.77
2018-05-14T14:38:20.401Z,3.67
2018-05-14T14:40:47.977Z,3.50
2018-05-14T14:43:15.556Z,3.27
2018-05-14T14:45:43.126Z,3.83
2018-05-14T14:48:10.698Z,4.00
2018-05-14T14:50:38.275Z,4.40
2018-05-14T14:53:05.853Z,3.50
2018-05-14T14:55:33.422Z,3.60
2018-05-14T14:58:00.993Z,3.67
2018-05-14T15:00:28.569Z,3.90
2018-05-14T15:02:56.145Z,3.70
2018-05-14T15:05:23.716Z,3.90
2018-05-14T15:07:51.289Z,3.83
2018-05-14T15:10:18.908Z,3.63
2018-05-14T15:12:46.482Z,3.60
2018-05-14T15:15:14.097Z,3.60
2018-05-14T15:17:41.678Z,3.73
2018-05-14T15:20:09.302Z,4.07
2018-05-14T15:22:37.765Z,4.00
2018-05-14T15:25:05.333Z,3.80
2018-05-14T15:27:32.901Z,3.90
2018-05-14T15:30:00.480Z,3.70
2018-05-14T15:32:28.057Z,3.60
2018-05-14T15:34:55.628Z,3.83
2018-05-14T15:37:23.206Z,3.63
2018-05-14T15:39:50.780Z,4.37
2018-05-14T15:42:19.269Z,3.90
2018-05-14T15:44:46.849Z,3.33
2018-05-14T15:47:14.425Z,3.33
2018-05-14T15:49:42.000Z,3.30
2018-05-14T15:52:09.565Z,4.00
2018-05-14T15:54:37.132Z,3.63
2018-05-14T15:57:04.743Z,3.50
2018-05-14T15:59:33.155Z,3.50
2018-05-14T16:02:00.732Z,3.80
2018-05-14T16:04:28.302Z,3.57
2018-05-14T16:06:55.883Z,3.60
2018-05-14T16:09:23.505Z,3.90
2018-05-14T16:11:51.101Z,3.97
2018-05-14T16:14:18.717Z,3.30
2018-05-14T16:16:46.306Z,3.27
2018-05-14T16:19:13.876Z,4.07
2018-05-14T16:21:42.336Z,3.53
2018-05-14T16:24:10.686Z,3.30
2018-05-14T16:26:38.369Z,3.40
2018-05-14T16:29:05.989Z,3.47
2018-05-14T16:31:33.530Z,3.47
2018-05-14T16:34:01.934Z,3.60
2018-05-14T16:36:29.510Z,4.30
2018-05-14T16:38:57.093Z,4.40
2018-05-14T16:41:24.665Z,3.93
2018-05-14T16:43:52.241Z,4.10
2018-05-14T16:46:19.817Z,3.97
2018-05-14T16:48:47.397Z,3.40
2018-05-14T16:51:15.881Z,3.90
2018-05-14T16:53:44.534Z,4.27
2018-05-14T16:56:12.104Z,3.60
2018-05-14T16:58:40.509Z,3.30
2018-05-14T17:01:08.090Z,3.73
2018-05-14T17:03:35.666Z,4.03
2018-05-14T17:06:03.286Z,5.63
2018-05-14T17:08:30.869Z,4.33
2018-05-14T17:10:58.442Z,4.40
2018-05-14T17:13:26.017Z,4.40
2018-05-14T17:15:53.638Z,5.00
2018-05-14T17:18:21.222Z,4.13
2018-05-14T17:20:48.813Z,4.17
2018-05-14T17:23:16.394Z,4.30
2018-05-14T17:25:44.882Z,4.10
2018-05-14T17:28:12.514Z,4.47
2018-05-14T17:30:40.092Z,4.67
2018-05-14T17:33:07.666Z,4.40
2018-05-14T17:35:35.237Z,4.60
2018-05-14T17:38:02.812Z,3.80
2018-05-14T17:40:31.344Z,4.70
2018-05-14T17:42:58.927Z,3.60
2018-05-14T17:45:26.500Z,3.90
2018-05-14T17:47:54.085Z,4.43
2018-05-14T17:50:21.705Z,4.97
2018-05-14T17:52:49.338Z,5.50
2018-05-14T17:55:16.940Z,4.40
2018-05-14T17:57:44.521Z,4.10
2018-05-14T18:00:12.133Z,4.80
2018-05-14T18:02:39.712Z,4.23
2018-05-14T18:05:08.227Z,4.00
2018-05-14T18:07:35.770Z,4.07
2018-05-14T18:10:03.355Z,3.43
2018-05-14T18:12:31.854Z,4.43
2018-05-14T18:14:59.434Z,4.80
2018-05-14T18:17:27.073Z,4.43
2018-05-14T18:20:00.093Z,4.80
2018-05-14T18:22:31.642Z,4.70
2018-05-14T18:25:04.918Z,4.80
2018-05-14T18:27:32.483Z,4.17
2018-05-14T18:30:05.670Z,4.60
2018-05-14T18:32:33.288Z,4.70
2018-05-14T18:35:06.475Z,4.77
2018-05-14T18:37:34.045Z,4.80
2018-05-14T18:40:02.398Z,4.50
2018-05-14T18:42:30.814Z,4.57
2018-05-14T18:44:59.223Z,5.03
2018-05-14T18:47:26.811Z,5.10
2018-05-14T18:49:54.561Z,4.37
2018-05-14T18:52:22.199Z,5.37
2018-05-14T18:54:49.854Z,5.60
2018-05-14T18:57:17.435Z,4.70
2018-05-14T18:59:45.031Z,5.47
2018-05-14T19:02:12.753Z,4.47
2018-05-14T19:04:40.343Z,4.70
2018-05-14T19:07:07.917Z,4.90
2018-05-14T19:09:35.538Z,4.13
2018-05-14T19:12:03.262Z,4.60
2018-05-14T19:14:30.849Z,4.70
2018-05-14T19:17:04.026Z,5.20
2018-05-14T19:19:31.612Z,5.80
2018-05-14T19:21:59.197Z,5.97
2018-05-14T19:24:26.770Z,6.10
2018-05-14T19:26:54.351Z,4.70
2018-05-14T19:29:27.635Z,4.90
2018-05-14T19:31:56.080Z,6.47
2018-05-14T19:34:29.297Z,4.83
2018-05-14T19:36:56.901Z,5.70
2018-05-14T19:39:30.097Z,5.37
2018-05-14T19:41:58.581Z,5.40
2018-05-14T19:44:26.167Z,5.17
2018-05-14T19:46:53.749Z,4.90
2018-05-14T19:49:21.401Z,4.60
2018-05-14T19:51:48.986Z,5.90
2018-05-14T19:54:16.667Z,6.47
2018-05-14T19:56:44.245Z,5.20
2018-05-14T19:59:11.909Z,5.00
2018-05-14T20:01:40.301Z,5.43
2018-05-14T20:04:08.647Z,6.30
2018-05-14T20:06:37.028Z,5.93
2018-05-14T20:09:04.611Z,5.70
2018-05-14T20:11:33.145Z,5.57
2018-05-14T20:14:01.489Z,5.00
2018-05-14T20:16:29.962Z,5.27
2018-05-14T20:18:57.613Z,5.80
2018-05-14T20:21:25.185Z,5.57
2018-05-14T20:23:52.814Z,5.53
2018-05-14T20:26:20.411Z,5.60
2018-05-14T20:28:48.065Z,5.23
2018-05-14T20:31:15.652Z,5.00
2018-05-14T20:33:43.288Z,5.57
2018-05-14T20:36:10.988Z,5.70
2018-05-14T20:38:38.610Z,5.53
2018-05-14T20:41:06.233Z,5.13
2018-05-14T20:43:33.834Z,5.20
2018-05-14T20:46:01.460Z,5.70
2018-05-14T20:48:29.033Z,6.13
2018-05-14T20:50:56.667Z,5.03
2018-05-14T20:53:25.149Z,6.13
2018-05-14T20:55:53.600Z,5.60
2018-05-14T20:58:22.082Z,6.00
2018-05-14T21:00:50.405Z,5.50
2018-05-14T21:03:18.797Z,5.37
2018-05-14T21:05:47.242Z,5.67
2018-05-14T21:08:14.804Z,5.87
2018-05-14T21:10:42.417Z,5.70
2018-05-14T21:13:10.139Z,5.80
2018-05-14T21:15:38.951Z,6.80
2018-05-14T21:18:06.575Z,6.23
2018-05-14T21:20:34.160Z,6.20
2018-05-14T21:23:02.895Z,5.67
2018-05-14T21:25:30.482Z,6.60
2018-05-14T21:27:58.100Z,6.33
2018-05-14T21:30:25.678Z,6.60
2018-05-14T21:32:53.261Z,6.57
2018-05-14T21:35:20.908Z,5.63
2018-05-14T21:37:48.447Z,5.60
2018-05-14T21:40:16.022Z,6.30
2018-05-14T21:42:43.601Z,6.37
2018-05-14T21:45:11.216Z,6.50
2018-05-14T21:47:38.796Z,6.10
2018-05-14T21:50:06.381Z,6.30
2018-05-14T21:52:33.958Z,5.90
2018-05-14T21:55:01.535Z,6.60
2018-05-14T21:57:29.154Z,7.70
2018-05-14T21:59:56.721Z,7.60
2018-05-14T22:02:24.373Z,6.70
2018-05-14T22:04:51.957Z,6.60
2018-05-14T22:07:19.536Z,5.90
2018-05-14T22:09:47.113Z,7.30
2018-05-14T22:12:15.494Z,7.30
2018-05-14T22:14:43.861Z,8.10
2018-05-14T22:17:12.337Z,6.47
2018-05-14T22:19:39.921Z,7.60
2018-05-14T22:22:07.497Z,6.50
2018-05-14T22:24:35.072Z,6.40
2018-05-14T22:27:02.647Z,6.90
2018-05-14T22:29:31.052Z,6.47
2018-05-14T22:31:59.519Z,7.37
2018-05-14T22:34:27.138Z,6.70
2018-05-14T22:36:54.713Z,7.63
2018-05-14T22:39:22.290Z,7.20
2018-05-14T22:41:49.865Z,6.73
2018-05-14T22:44:18.262Z,7.53
2018-05-14T22:46:46.717Z,6.77
2018-05-14T22:49:14.297Z,7.27
2018-05-14T22:51:41.909Z,7.50
2018-05-14T22:54:10.269Z,7.20
2018-05-14T22:56:38.637Z,7.27
2018-05-14T22:59:07.046Z,6.70
2018-05-14T23:01:35.394Z,7.27
2018-05-14T23:04:02.972Z,7.90
2018-05-14T23:06:30.545Z,7.90
2018-05-14T23:08:58.121Z,7.33
2018-05-14T23:11:26.461Z,7.90
2018-05-14T23:13:54.828Z,7.00
2018-05-14T23:16:23.093Z,8.13
2018-05-14T23:18:51.766Z,8.90
2018-05-14T23:21:20.143Z,7.77
2018-05-14T23:23:48.407Z,7.50
2018-05-14T23:26:16.808Z,7.20
2018-05-14T23:28:45.186Z,7.63
2018-05-14T23:31:13.565Z,7.40
2018-05-14T23:33:41.925Z,7.27
2018-05-14T23:36:09.546Z,7.20
2018-05-14T23:38:37.796Z,7.20
2018-05-14T23:41:05.410Z,7.60
2018-05-14T23:43:33.764Z,7.50
2018-05-14T23:46:02.162Z,7.60
2018-05-14T23:48:30.448Z,8.30
2018-05-14T23:50:58.885Z,7.70
2018-05-14T23:53:27.470Z,7.50
2018-05-14T23:55:55.054Z,8.67
2018-05-14T23:58:23.467Z,8.30
